Etusivu
METAR-TAF:

METAR-TAF

Lentoasemat :

Dillon Airport

Dillon, Montana, Yhdysvallat

Leveyspiiri: 45-15-27N, Pituuspiiri: 112-33-16W, korkeus merenpinnasta: 1597 m

Tämänhetkinen sää

Tämä raportti tehtiin 37 minuuttia sitten, kello 07.53 UTC
Tuuli 3 kn idästä
Lämpötila 10°C
Kosteus 100%
Ilmanpaine 1017 hPa
Näkyvyys: 16.1 km
selkeää

METAR: KDLN 170753Z AUTO 08003KT 10SM CLR 10/10 A3003 RMK AO2 SLP135 T01000100

Aika: 02:30 (08:30 UTC)


TAF: puuttuu

Säähavainnot ja -ennusteet yli 4000 lentoasemalta (METAR- ja TAF-raportit).

Käytössä olevat sääasemat on merkitty karttaan keltaisilla ja punaisilla pisteillä.

Aseta hiiri pisteen päälle nähdäksesi sääaseman nimen.

Klikkaa sitten nähdäksesi säähavainnot ja -ennusteet.

Kartan vaihtaminen: klikkaa mustalla rastilla varustettuja vihreitä pisteitä, niin voit zoomata sisään; viivalla varustettua vihreää pistettä, niin voit zoomata ulos tai vihreitä nuolia, niin pääset viereisille kartoille.


METAR-TAF: